sensor_id;sensor_type;location;lat;lon;timestamp;P1;durP1;ratioP1;P2;durP2;ratioP2
211;SDS011;16228;48.800;9.002;2022-09-09T00:00:53;6.17;;;1.60;;
211;SDS011;16228;48.800;9.002;2022-09-09T00:03:26;4.73;;;1.83;;
211;SDS011;16228;48.800;9.002;2022-09-09T00:05:57;4.70;;;1.63;;
211;SDS011;16228;48.800;9.002;2022-09-09T00:08:32;3.33;;;1.37;;
211;SDS011;16228;48.800;9.002;2022-09-09T00:11:09;4.23;;;1.23;;
211;SDS011;16228;48.800;9.002;2022-09-09T00:13:41;3.60;;;1.33;;
211;SDS011;16228;48.800;9.002;2022-09-09T00:16:14;8.03;;;1.50;;
211;SDS011;16228;48.800;9.002;2022-09-09T00:18:47;4.37;;;1.40;;
211;SDS011;16228;48.800;9.002;2022-09-09T00:21:18;2.53;;;1.33;;
211;SDS011;16228;48.800;9.002;2022-09-09T00:23:51;6.13;;;1.60;;
211;SDS011;16228;48.800;9.002;2022-09-09T00:26:22;3.83;;;1.27;;
211;SDS011;16228;48.800;9.002;2022-09-09T00:28:58;4.10;;;1.50;;
211;SDS011;16228;48.800;9.002;2022-09-09T00:31:31;2.70;;;1.27;;
211;SDS011;16228;48.800;9.002;2022-09-09T00:34:00;5.83;;;2.17;;
211;SDS011;16228;48.800;9.002;2022-09-09T00:36:35;2.73;;;1.43;;
211;SDS011;16228;48.800;9.002;2022-09-09T00:39:04;2.17;;;1.20;;
211;SDS011;16228;48.800;9.002;2022-09-09T00:41:35;4.97;;;1.20;;
211;SDS011;16228;48.800;9.002;2022-09-09T00:44:16;3.10;;;1.47;;
211;SDS011;16228;48.800;9.002;2022-09-09T00:46:56;3.50;;;1.00;;
211;SDS011;16228;48.800;9.002;2022-09-09T00:49:36;3.23;;;1.50;;
211;SDS011;16228;48.800;9.002;2022-09-09T00:52:18;4.20;;;1.40;;
211;SDS011;16228;48.800;9.002;2022-09-09T00:54:59;2.13;;;1.50;;
211;SDS011;16228;48.800;9.002;2022-09-09T00:57:34;1.43;;;1.13;;
211;SDS011;16228;48.800;9.002;2022-09-09T01:00:17;5.57;;;1.30;;
211;SDS011;16228;48.800;9.002;2022-09-09T01:02:53;3.63;;;1.17;;
211;SDS011;16228;48.800;9.002;2022-09-09T01:05:41;2.30;;;0.90;;
211;SDS011;16228;48.800;9.002;2022-09-09T01:08:21;2.37;;;1.07;;
211;SDS011;16228;48.800;9.002;2022-09-09T01:11:02;2.37;;;1.20;;
211;SDS011;16228;48.800;9.002;2022-09-09T01:13:30;3.37;;;1.20;;
211;SDS011;16228;48.800;9.002;2022-09-09T01:16:01;2.83;;;1.20;;
211;SDS011;16228;48.800;9.002;2022-09-09T01:18:32;5.67;;;1.23;;
211;SDS011;16228;48.800;9.002;2022-09-09T01:21:04;2.37;;;1.23;;
211;SDS011;16228;48.800;9.002;2022-09-09T01:26:36;3.63;;;1.07;;
211;SDS011;16228;48.800;9.002;2022-09-09T01:29:06;4.53;;;1.30;;
211;SDS011;16228;48.800;9.002;2022-09-09T01:31:36;2.37;;;1.17;;
211;SDS011;16228;48.800;9.002;2022-09-09T01:34:08;4.07;;;1.13;;
211;SDS011;16228;48.800;9.002;2022-09-09T01:36:38;2.73;;;1.23;;
211;SDS011;16228;48.800;9.002;2022-09-09T01:39:10;3.43;;;1.37;;
211;SDS011;16228;48.800;9.002;2022-09-09T01:41:40;2.83;;;1.63;;
211;SDS011;16228;48.800;9.002;2022-09-09T01:44:07;5.03;;;1.90;;
211;SDS011;16228;48.800;9.002;2022-09-09T01:46:34;2.27;;;1.20;;
211;SDS011;16228;48.800;9.002;2022-09-09T01:49:02;3.13;;;1.23;;
211;SDS011;16228;48.800;9.002;2022-09-09T01:51:31;3.00;;;0.90;;
211;SDS011;16228;48.800;9.002;2022-09-09T01:53:59;2.20;;;1.00;;
211;SDS011;16228;48.800;9.002;2022-09-09T01:56:31;4.20;;;1.13;;
211;SDS011;16228;48.800;9.002;2022-09-09T01:59:09;3.17;;;0.97;;
211;SDS011;16228;48.800;9.002;2022-09-09T02:01:48;2.60;;;1.30;;
211;SDS011;16228;48.800;9.002;2022-09-09T02:04:30;1.23;;;1.10;;
211;SDS011;16228;48.800;9.002;2022-09-09T02:07:02;3.43;;;1.10;;
211;SDS011;16228;48.800;9.002;2022-09-09T02:09:40;2.63;;;1.33;;
211;SDS011;16228;48.800;9.002;2022-09-09T02:12:13;3.63;;;1.67;;
211;SDS011;16228;48.800;9.002;2022-09-09T02:14:47;4.83;;;1.30;;
211;SDS011;16228;48.800;9.002;2022-09-09T02:17:17;3.57;;;1.30;;
211;SDS011;16228;48.800;9.002;2022-09-09T02:19:49;5.57;;;1.40;;
211;SDS011;16228;48.800;9.002;2022-09-09T02:22:22;2.23;;;0.97;;
211;SDS011;16228;48.800;9.002;2022-09-09T02:24:52;3.27;;;1.20;;
211;SDS011;16228;48.800;9.002;2022-09-09T02:27:24;2.77;;;1.50;;
211;SDS011;16228;48.800;9.002;2022-09-09T02:29:53;4.80;;;1.47;;
211;SDS011;16228;48.800;9.002;2022-09-09T02:32:22;1.80;;;1.20;;
211;SDS011;16228;48.800;9.002;2022-09-09T02:34:51;4.50;;;1.43;;
211;SDS011;16228;48.800;9.002;2022-09-09T02:37:24;2.77;;;1.17;;
211;SDS011;16228;48.800;9.002;2022-09-09T02:39:55;3.13;;;1.30;;
211;SDS011;16228;48.800;9.002;2022-09-09T02:42:22;2.93;;;1.30;;
211;SDS011;16228;48.800;9.002;2022-09-09T02:44:49;1.97;;;1.20;;
211;SDS011;16228;48.800;9.002;2022-09-09T02:47:22;1.47;;;1.37;;
211;SDS011;16228;48.800;9.002;2022-09-09T02:50:02;2.53;;;1.20;;
211;SDS011;16228;48.800;9.002;2022-09-09T02:52:38;2.07;;;1.30;;
211;SDS011;16228;48.800;9.002;2022-09-09T02:55:16;2.50;;;1.30;;
211;SDS011;16228;48.800;9.002;2022-09-09T02:57:46;3.33;;;1.60;;
211;SDS011;16228;48.800;9.002;2022-09-09T03:00:15;5.47;;;1.80;;
211;SDS011;16228;48.800;9.002;2022-09-09T03:02:43;3.17;;;1.50;;
211;SDS011;16228;48.800;9.002;2022-09-09T03:05:10;2.97;;;1.30;;
211;SDS011;16228;48.800;9.002;2022-09-09T03:07:38;2.10;;;1.10;;
211;SDS011;16228;48.800;9.002;2022-09-09T03:10:07;3.53;;;1.37;;
211;SDS011;16228;48.800;9.002;2022-09-09T03:12:35;2.23;;;1.67;;
211;SDS011;16228;48.800;9.002;2022-09-09T03:15:04;4.43;;;1.80;;
211;SDS011;16228;48.800;9.002;2022-09-09T03:17:32;5.27;;;1.23;;
211;SDS011;16228;48.800;9.002;2022-09-09T03:20:00;3.43;;;1.40;;
211;SDS011;16228;48.800;9.002;2022-09-09T03:22:28;2.10;;;1.27;;
211;SDS011;16228;48.800;9.002;2022-09-09T03:24:55;1.10;;;0.97;;
211;SDS011;16228;48.800;9.002;2022-09-09T03:27:22;1.77;;;1.20;;
211;SDS011;16228;48.800;9.002;2022-09-09T03:29:49;3.10;;;1.13;;
211;SDS011;16228;48.800;9.002;2022-09-09T03:32:16;3.40;;;1.20;;
211;SDS011;16228;48.800;9.002;2022-09-09T03:34:43;2.70;;;1.00;;
211;SDS011;16228;48.800;9.002;2022-09-09T03:37:13;1.80;;;1.37;;
211;SDS011;16228;48.800;9.002;2022-09-09T03:39:40;5.60;;;2.20;;
211;SDS011;16228;48.800;9.002;2022-09-09T03:42:07;3.93;;;2.33;;
211;SDS011;16228;48.800;9.002;2022-09-09T03:44:35;2.60;;;1.87;;
211;SDS011;16228;48.800;9.002;2022-09-09T03:47:02;2.10;;;1.23;;
211;SDS011;16228;48.800;9.002;2022-09-09T03:49:30;1.30;;;1.20;;
211;SDS011;16228;48.800;9.002;2022-09-09T03:51:57;2.83;;;1.43;;
211;SDS011;16228;48.800;9.002;2022-09-09T03:54:25;3.00;;;1.13;;
211;SDS011;16228;48.800;9.002;2022-09-09T03:56:52;3.07;;;1.30;;
211;SDS011;16228;48.800;9.002;2022-09-09T03:59:19;3.63;;;1.40;;
211;SDS011;16228;48.800;9.002;2022-09-09T04:01:48;1.30;;;1.00;;
211;SDS011;16228;48.800;9.002;2022-09-09T04:04:15;3.93;;;1.30;;
211;SDS011;16228;48.800;9.002;2022-09-09T04:06:42;3.17;;;1.50;;
211;SDS011;16228;48.800;9.002;2022-09-09T04:09:09;2.43;;;1.20;;
211;SDS011;16228;48.800;9.002;2022-09-09T04:11:37;1.10;;;1.00;;
211;SDS011;16228;48.800;9.002;2022-09-09T04:14:04;0.93;;;0.87;;
211;SDS011;16228;48.800;9.002;2022-09-09T04:16:32;0.90;;;0.77;;
211;SDS011;16228;48.800;9.002;2022-09-09T04:19:00;4.10;;;1.10;;
211;SDS011;16228;48.800;9.002;2022-09-09T04:21:29;4.67;;;1.00;;
211;SDS011;16228;48.800;9.002;2022-09-09T04:23:56;2.57;;;0.97;;
211;SDS011;16228;48.800;9.002;2022-09-09T04:26:23;1.80;;;1.00;;
211;SDS011;16228;48.800;9.002;2022-09-09T04:28:51;2.63;;;1.07;;
211;SDS011;16228;48.800;9.002;2022-09-09T04:31:19;3.83;;;1.10;;
211;SDS011;16228;48.800;9.002;2022-09-09T04:33:48;2.07;;;0.93;;
211;SDS011;16228;48.800;9.002;2022-09-09T04:36:15;5.20;;;1.10;;
211;SDS011;16228;48.800;9.002;2022-09-09T04:38:44;4.47;;;1.50;;
211;SDS011;16228;48.800;9.002;2022-09-09T04:41:11;2.47;;;0.90;;
211;SDS011;16228;48.800;9.002;2022-09-09T04:43:38;1.60;;;0.90;;
211;SDS011;16228;48.800;9.002;2022-09-09T04:46:07;2.80;;;1.00;;
211;SDS011;16228;48.800;9.002;2022-09-09T04:48:34;2.63;;;1.47;;
211;SDS011;16228;48.800;9.002;2022-09-09T04:51:02;3.20;;;1.00;;
211;SDS011;16228;48.800;9.002;2022-09-09T04:53:30;3.70;;;1.07;;
211;SDS011;16228;48.800;9.002;2022-09-09T04:56:03;2.37;;;1.00;;
211;SDS011;16228;48.800;9.002;2022-09-09T04:58:31;2.40;;;0.90;;
211;SDS011;16228;48.800;9.002;2022-09-09T05:01:04;3.20;;;1.10;;
211;SDS011;16228;48.800;9.002;2022-09-09T05:03:34;2.10;;;1.03;;
211;SDS011;16228;48.800;9.002;2022-09-09T05:06:02;2.70;;;1.03;;
211;SDS011;16228;48.800;9.002;2022-09-09T05:08:30;2.53;;;1.00;;
211;SDS011;16228;48.800;9.002;2022-09-09T05:10:57;2.57;;;0.73;;
211;SDS011;16228;48.800;9.002;2022-09-09T05:13:25;2.40;;;1.00;;
211;SDS011;16228;48.800;9.002;2022-09-09T05:15:52;2.30;;;1.30;;
211;SDS011;16228;48.800;9.002;2022-09-09T05:18:21;2.47;;;1.20;;
211;SDS011;16228;48.800;9.002;2022-09-09T05:20:48;5.90;;;1.10;;
211;SDS011;16228;48.800;9.002;2022-09-09T05:23:16;2.33;;;1.00;;
211;SDS011;16228;48.800;9.002;2022-09-09T05:25:43;2.77;;;1.03;;
211;SDS011;16228;48.800;9.002;2022-09-09T05:28:11;2.30;;;1.27;;
211;SDS011;16228;48.800;9.002;2022-09-09T05:30:38;5.03;;;1.20;;
211;SDS011;16228;48.800;9.002;2022-09-09T05:33:06;2.07;;;0.93;;
211;SDS011;16228;48.800;9.002;2022-09-09T05:35:35;3.37;;;1.60;;
211;SDS011;16228;48.800;9.002;2022-09-09T05:38:03;3.10;;;1.30;;
211;SDS011;16228;48.800;9.002;2022-09-09T05:40:30;2.73;;;1.60;;
211;SDS011;16228;48.800;9.002;2022-09-09T05:42:59;3.53;;;1.10;;
211;SDS011;16228;48.800;9.002;2022-09-09T05:45:27;2.33;;;0.90;;
211;SDS011;16228;48.800;9.002;2022-09-09T05:47:54;1.57;;;1.23;;
211;SDS011;16228;48.800;9.002;2022-09-09T05:50:21;1.23;;;0.90;;
211;SDS011;16228;48.800;9.002;2022-09-09T05:52:49;3.33;;;1.37;;
211;SDS011;16228;48.800;9.002;2022-09-09T05:55:16;2.90;;;1.00;;
211;SDS011;16228;48.800;9.002;2022-09-09T05:57:47;1.73;;;0.90;;
211;SDS011;16228;48.800;9.002;2022-09-09T06:00:17;1.77;;;1.10;;
211;SDS011;16228;48.800;9.002;2022-09-09T06:02:49;2.50;;;1.10;;
211;SDS011;16228;48.800;9.002;2022-09-09T06:05:17;2.20;;;1.00;;
211;SDS011;16228;48.800;9.002;2022-09-09T06:07:44;2.60;;;0.97;;
211;SDS011;16228;48.800;9.002;2022-09-09T06:10:13;2.73;;;0.97;;
211;SDS011;16228;48.800;9.002;2022-09-09T06:12:40;2.13;;;0.93;;
211;SDS011;16228;48.800;9.002;2022-09-09T06:15:08;3.20;;;1.03;;
211;SDS011;16228;48.800;9.002;2022-09-09T06:17:35;2.13;;;1.00;;
211;SDS011;16228;48.800;9.002;2022-09-09T06:20:04;3.57;;;1.10;;
211;SDS011;16228;48.800;9.002;2022-09-09T06:22:31;3.17;;;1.20;;
211;SDS011;16228;48.800;9.002;2022-09-09T06:24:58;2.57;;;1.03;;
211;SDS011;16228;48.800;9.002;2022-09-09T06:27:28;2.70;;;1.20;;
211;SDS011;16228;48.800;9.002;2022-09-09T06:29:55;3.40;;;1.03;;
211;SDS011;16228;48.800;9.002;2022-09-09T06:32:22;1.77;;;1.03;;
211;SDS011;16228;48.800;9.002;2022-09-09T06:34:49;4.97;;;1.57;;
211;SDS011;16228;48.800;9.002;2022-09-09T06:37:16;4.93;;;1.20;;
211;SDS011;16228;48.800;9.002;2022-09-09T06:39:42;1.37;;;1.00;;
211;SDS011;16228;48.800;9.002;2022-09-09T06:42:10;3.53;;;1.33;;
211;SDS011;16228;48.800;9.002;2022-09-09T06:44:38;2.53;;;1.20;;
211;SDS011;16228;48.800;9.002;2022-09-09T06:47:05;2.63;;;1.03;;
211;SDS011;16228;48.800;9.002;2022-09-09T06:49:32;3.67;;;1.20;;
211;SDS011;16228;48.800;9.002;2022-09-09T06:52:00;3.13;;;1.37;;
211;SDS011;16228;48.800;9.002;2022-09-09T06:54:27;2.10;;;0.90;;
211;SDS011;16228;48.800;9.002;2022-09-09T06:56:54;2.33;;;1.07;;
211;SDS011;16228;48.800;9.002;2022-09-09T06:59:21;1.37;;;0.73;;
211;SDS011;16228;48.800;9.002;2022-09-09T07:01:50;2.37;;;0.90;;
211;SDS011;16228;48.800;9.002;2022-09-09T07:04:19;2.43;;;0.90;;
211;SDS011;16228;48.800;9.002;2022-09-09T07:06:46;2.10;;;1.03;;
211;SDS011;16228;48.800;9.002;2022-09-09T07:09:14;2.50;;;1.10;;
211;SDS011;16228;48.800;9.002;2022-09-09T07:11:42;2.50;;;1.10;;
211;SDS011;16228;48.800;9.002;2022-09-09T07:14:10;3.53;;;1.10;;
211;SDS011;16228;48.800;9.002;2022-09-09T07:16:39;2.17;;;0.97;;
211;SDS011;16228;48.800;9.002;2022-09-09T07:19:08;0.60;;;0.50;;
211;SDS011;16228;48.800;9.002;2022-09-09T07:21:35;2.80;;;1.00;;
211;SDS011;16228;48.800;9.002;2022-09-09T07:24:02;5.40;;;1.00;;
211;SDS011;16228;48.800;9.002;2022-09-09T07:26:32;4.33;;;0.90;;
211;SDS011;16228;48.800;9.002;2022-09-09T07:29:00;1.97;;;0.80;;
211;SDS011;16228;48.800;9.002;2022-09-09T07:31:27;2.13;;;0.80;;
211;SDS011;16228;48.800;9.002;2022-09-09T07:33:56;1.37;;;0.70;;
211;SDS011;16228;48.800;9.002;2022-09-09T07:36:26;3.03;;;1.03;;
211;SDS011;16228;48.800;9.002;2022-09-09T07:38:56;1.70;;;0.90;;
211;SDS011;16228;48.800;9.002;2022-09-09T07:41:24;2.27;;;1.00;;
211;SDS011;16228;48.800;9.002;2022-09-09T07:43:53;3.27;;;0.83;;
211;SDS011;16228;48.800;9.002;2022-09-09T07:46:21;4.20;;;0.90;;
211;SDS011;16228;48.800;9.002;2022-09-09T07:48:51;1.37;;;0.80;;
211;SDS011;16228;48.800;9.002;2022-09-09T07:51:20;1.73;;;0.60;;
211;SDS011;16228;48.800;9.002;2022-09-09T07:53:52;2.10;;;0.80;;
211;SDS011;16228;48.800;9.002;2022-09-09T07:56:20;1.52;;;0.52;;
211;SDS011;16228;48.800;9.002;2022-09-09T07:58:48;1.13;;;0.63;;
211;SDS011;16228;48.800;9.002;2022-09-09T08:01:17;3.47;;;0.80;;
211;SDS011;16228;48.800;9.002;2022-09-09T08:03:45;3.03;;;0.90;;
211;SDS011;16228;48.800;9.002;2022-09-09T08:06:13;1.43;;;0.60;;
211;SDS011;16228;48.800;9.002;2022-09-09T08:08:40;1.17;;;0.50;;
211;SDS011;16228;48.800;9.002;2022-09-09T08:11:10;1.95;;;0.70;;
211;SDS011;16228;48.800;9.002;2022-09-09T08:13:39;1.70;;;0.82;;
211;SDS011;16228;48.800;9.002;2022-09-09T08:16:08;2.00;;;0.60;;
211;SDS011;16228;48.800;9.002;2022-09-09T08:18:37;2.33;;;0.60;;
211;SDS011;16228;48.800;9.002;2022-09-09T08:21:05;3.72;;;0.75;;
211;SDS011;16228;48.800;9.002;2022-09-09T08:23:34;2.17;;;0.88;;
211;SDS011;16228;48.800;9.002;2022-09-09T08:26:10;2.17;;;0.70;;
211;SDS011;16228;48.800;9.002;2022-09-09T08:28:40;1.42;;;0.70;;
211;SDS011;16228;48.800;9.002;2022-09-09T08:31:08;3.20;;;0.98;;
211;SDS011;16228;48.800;9.002;2022-09-09T08:33:37;4.68;;;0.75;;
211;SDS011;16228;48.800;9.002;2022-09-09T08:36:05;2.00;;;1.02;;
211;SDS011;16228;48.800;9.002;2022-09-09T08:38:34;2.10;;;0.77;;
211;SDS011;16228;48.800;9.002;2022-09-09T08:41:09;2.45;;;0.90;;
211;SDS011;16228;48.800;9.002;2022-09-09T08:44:06;3.72;;;0.80;;
211;SDS011;16228;48.800;9.002;2022-09-09T08:46:38;1.55;;;0.70;;
211;SDS011;16228;48.800;9.002;2022-09-09T08:49:19;2.75;;;0.88;;
211;SDS011;16228;48.800;9.002;2022-09-09T08:52:04;1.83;;;0.70;;
211;SDS011;16228;48.800;9.002;2022-09-09T08:54:41;2.33;;;0.90;;
211;SDS011;16228;48.800;9.002;2022-09-09T08:57:11;2.25;;;0.60;;
211;SDS011;16228;48.800;9.002;2022-09-09T08:59:44;4.05;;;0.82;;
211;SDS011;16228;48.800;9.002;2022-09-09T09:02:14;3.30;;;0.85;;
211;SDS011;16228;48.800;9.002;2022-09-09T09:04:56;4.53;;;1.03;;
211;SDS011;16228;48.800;9.002;2022-09-09T09:07:34;1.30;;;0.60;;
211;SDS011;16228;48.800;9.002;2022-09-09T09:10:15;3.80;;;0.90;;
211;SDS011;16228;48.800;9.002;2022-09-09T09:12:58;2.03;;;0.90;;
211;SDS011;16228;48.800;9.002;2022-09-09T09:15:29;3.50;;;0.60;;
211;SDS011;16228;48.800;9.002;2022-09-09T09:18:02;2.40;;;1.00;;
211;SDS011;16228;48.800;9.002;2022-09-09T09:20:34;4.03;;;0.80;;
211;SDS011;16228;48.800;9.002;2022-09-09T09:23:09;2.63;;;0.87;;
211;SDS011;16228;48.800;9.002;2022-09-09T09:25:45;3.70;;;0.80;;
211;SDS011;16228;48.800;9.002;2022-09-09T09:28:15;2.47;;;1.20;;
211;SDS011;16228;48.800;9.002;2022-09-09T09:30:44;2.00;;;1.10;;
211;SDS011;16228;48.800;9.002;2022-09-09T09:33:18;2.88;;;0.82;;
211;SDS011;16228;48.800;9.002;2022-09-09T09:35:48;1.67;;;0.60;;
211;SDS011;16228;48.800;9.002;2022-09-09T09:38:17;1.70;;;0.77;;
211;SDS011;16228;48.800;9.002;2022-09-09T09:40:51;3.17;;;0.73;;
211;SDS011;16228;48.800;9.002;2022-09-09T09:43:26;2.97;;;1.13;;
211;SDS011;16228;48.800;9.002;2022-09-09T09:45:55;1.83;;;0.73;;
211;SDS011;16228;48.800;9.002;2022-09-09T09:48:23;1.02;;;0.57;;
211;SDS011;16228;48.800;9.002;2022-09-09T09:50:52;1.15;;;0.60;;
211;SDS011;16228;48.800;9.002;2022-09-09T09:53:23;1.30;;;0.80;;
211;SDS011;16228;48.800;9.002;2022-09-09T09:55:53;1.70;;;0.90;;
211;SDS011;16228;48.800;9.002;2022-09-09T09:58:25;1.25;;;0.65;;
211;SDS011;16228;48.800;9.002;2022-09-09T10:00:55;1.83;;;0.80;;
211;SDS011;16228;48.800;9.002;2022-09-09T10:03:23;1.65;;;0.65;;
211;SDS011;16228;48.800;9.002;2022-09-09T10:05:52;0.95;;;0.60;;
211;SDS011;16228;48.800;9.002;2022-09-09T10:08:20;2.45;;;0.90;;
211;SDS011;16228;48.800;9.002;2022-09-09T10:10:52;3.63;;;0.70;;
211;SDS011;16228;48.800;9.002;2022-09-09T10:13:36;3.47;;;0.88;;
211;SDS011;16228;48.800;9.002;2022-09-09T10:16:19;2.38;;;1.00;;
211;SDS011;16228;48.800;9.002;2022-09-09T10:19:01;2.83;;;0.85;;
211;SDS011;16228;48.800;9.002;2022-09-09T10:21:41;2.13;;;0.90;;
211;SDS011;16228;48.800;9.002;2022-09-09T10:24:33;3.47;;;0.80;;
211;SDS011;16228;48.800;9.002;2022-09-09T10:27:20;3.25;;;0.80;;
211;SDS011;16228;48.800;9.002;2022-09-09T10:30:00;3.67;;;0.80;;
211;SDS011;16228;48.800;9.002;2022-09-09T10:32:36;1.75;;;0.90;;
211;SDS011;16228;48.800;9.002;2022-09-09T10:35:10;2.05;;;0.73;;
211;SDS011;16228;48.800;9.002;2022-09-09T10:37:53;1.70;;;0.70;;
211;SDS011;16228;48.800;9.002;2022-09-09T10:40:41;2.55;;;0.98;;
211;SDS011;16228;48.800;9.002;2022-09-09T10:43:15;4.40;;;1.10;;
211;SDS011;16228;48.800;9.002;2022-09-09T10:45:55;4.17;;;1.37;;
211;SDS011;16228;48.800;9.002;2022-09-09T10:48:31;5.23;;;1.30;;
211;SDS011;16228;48.800;9.002;2022-09-09T10:51:15;4.53;;;0.90;;
211;SDS011;16228;48.800;9.002;2022-09-09T10:53:57;3.60;;;1.07;;
211;SDS011;16228;48.800;9.002;2022-09-09T10:56:40;5.80;;;1.40;;
211;SDS011;16228;48.800;9.002;2022-09-09T10:59:12;3.37;;;1.10;;
211;SDS011;16228;48.800;9.002;2022-09-09T11:01:46;10.07;;;1.80;;
211;SDS011;16228;48.800;9.002;2022-09-09T11:04:20;2.10;;;1.13;;
211;SDS011;16228;48.800;9.002;2022-09-09T11:06:50;6.07;;;1.50;;
211;SDS011;16228;48.800;9.002;2022-09-09T11:09:21;3.90;;;1.20;;
211;SDS011;16228;48.800;9.002;2022-09-09T11:11:52;3.33;;;1.20;;
211;SDS011;16228;48.800;9.002;2022-09-09T11:14:22;3.83;;;1.00;;
211;SDS011;16228;48.800;9.002;2022-09-09T11:16:57;2.63;;;0.83;;
211;SDS011;16228;48.800;9.002;2022-09-09T11:19:27;3.47;;;1.10;;
211;SDS011;16228;48.800;9.002;2022-09-09T11:21:59;3.70;;;1.27;;
211;SDS011;16228;48.800;9.002;2022-09-09T11:24:30;4.43;;;4.10;;
211;SDS011;16228;48.800;9.002;2022-09-09T11:27:03;1.80;;;0.60;;
211;SDS011;16228;48.800;9.002;2022-09-09T11:29:41;1.13;;;0.50;;
211;SDS011;16228;48.800;9.002;2022-09-09T11:32:39;1.30;;;0.53;;
211;SDS011;16228;48.800;9.002;2022-09-09T11:35:21;1.43;;;0.60;;
211;SDS011;16228;48.800;9.002;2022-09-09T11:38:08;1.53;;;0.50;;
211;SDS011;16228;48.800;9.002;2022-09-09T11:40:43;2.37;;;0.73;;
211;SDS011;16228;48.800;9.002;2022-09-09T11:43:12;1.40;;;0.60;;
211;SDS011;16228;48.800;9.002;2022-09-09T11:45:42;1.77;;;0.57;;
211;SDS011;16228;48.800;9.002;2022-09-09T11:48:26;0.77;;;0.60;;
211;SDS011;16228;48.800;9.002;2022-09-09T11:50:58;1.47;;;0.47;;
211;SDS011;16228;48.800;9.002;2022-09-09T11:53:26;1.20;;;0.40;;
211;SDS011;16228;48.800;9.002;2022-09-09T11:56:00;1.10;;;0.60;;
211;SDS011;16228;48.800;9.002;2022-09-09T11:58:32;1.47;;;0.50;;
211;SDS011;16228;48.800;9.002;2022-09-09T12:04:21;2.30;;;0.93;;
211;SDS011;16228;48.800;9.002;2022-09-09T12:07:02;1.90;;;0.40;;
211;SDS011;16228;48.800;9.002;2022-09-09T12:09:50;0.80;;;0.40;;
211;SDS011;16228;48.800;9.002;2022-09-09T12:12:29;0.67;;;0.50;;
211;SDS011;16228;48.800;9.002;2022-09-09T12:14:59;0.80;;;0.50;;
211;SDS011;16228;48.800;9.002;2022-09-09T12:17:29;0.53;;;0.33;;
211;SDS011;16228;48.800;9.002;2022-09-09T12:20:09;1.63;;;0.50;;
211;SDS011;16228;48.800;9.002;2022-09-09T12:22:43;1.40;;;0.50;;
211;SDS011;16228;48.800;9.002;2022-09-09T12:25:29;0.97;;;0.40;;
211;SDS011;16228;48.800;9.002;2022-09-09T12:28:06;0.88;;;0.50;;
211;SDS011;16228;48.800;9.002;2022-09-09T12:30:40;1.48;;;0.57;;
211;SDS011;16228;48.800;9.002;2022-09-09T12:33:16;0.93;;;0.52;;
211;SDS011;16228;48.800;9.002;2022-09-09T12:35:47;1.30;;;0.50;;
211;SDS011;16228;48.800;9.002;2022-09-09T12:38:19;1.17;;;0.47;;
211;SDS011;16228;48.800;9.002;2022-09-09T12:40:54;1.80;;;0.50;;
211;SDS011;16228;48.800;9.002;2022-09-09T12:43:23;1.37;;;0.40;;
211;SDS011;16228;48.800;9.002;2022-09-09T12:45:53;2.10;;;0.40;;
211;SDS011;16228;48.800;9.002;2022-09-09T12:48:25;1.67;;;0.40;;
211;SDS011;16228;48.800;9.002;2022-09-09T12:50:58;0.90;;;0.60;;
211;SDS011;16228;48.800;9.002;2022-09-09T12:53:26;1.13;;;0.50;;
211;SDS011;16228;48.800;9.002;2022-09-09T12:55:57;0.60;;;0.40;;
211;SDS011;16228;48.800;9.002;2022-09-09T12:58:27;1.00;;;0.50;;
211;SDS011;16228;48.800;9.002;2022-09-09T13:00:58;1.23;;;0.40;;
211;SDS011;16228;48.800;9.002;2022-09-09T13:03:26;1.10;;;0.40;;
211;SDS011;16228;48.800;9.002;2022-09-09T13:05:53;1.60;;;0.60;;
211;SDS011;16228;48.800;9.002;2022-09-09T13:08:37;1.33;;;0.57;;
211;SDS011;16228;48.800;9.002;2022-09-09T13:11:06;1.43;;;0.63;;
211;SDS011;16228;48.800;9.002;2022-09-09T13:13:37;1.40;;;0.60;;
211;SDS011;16228;48.800;9.002;2022-09-09T13:16:06;1.80;;;0.50;;
211;SDS011;16228;48.800;9.002;2022-09-09T13:18:44;0.67;;;0.37;;
211;SDS011;16228;48.800;9.002;2022-09-09T13:21:13;1.07;;;0.63;;
211;SDS011;16228;48.800;9.002;2022-09-09T13:23:40;1.33;;;0.50;;
211;SDS011;16228;48.800;9.002;2022-09-09T13:26:19;1.20;;;0.60;;
211;SDS011;16228;48.800;9.002;2022-09-09T13:28:48;1.67;;;0.50;;
211;SDS011;16228;48.800;9.002;2022-09-09T13:31:20;2.00;;;0.80;;
211;SDS011;16228;48.800;9.002;2022-09-09T13:33:49;2.23;;;0.50;;
211;SDS011;16228;48.800;9.002;2022-09-09T13:36:26;1.40;;;0.60;;
211;SDS011;16228;48.800;9.002;2022-09-09T13:38:55;2.03;;;0.50;;
211;SDS011;16228;48.800;9.002;2022-09-09T13:41:25;1.43;;;0.50;;
211;SDS011;16228;48.800;9.002;2022-09-09T13:43:56;0.90;;;0.60;;
211;SDS011;16228;48.800;9.002;2022-09-09T13:46:25;0.63;;;0.40;;
211;SDS011;16228;48.800;9.002;2022-09-09T13:48:55;3.10;;;0.60;;
211;SDS011;16228;48.800;9.002;2022-09-09T13:51:28;1.73;;;0.50;;
211;SDS011;16228;48.800;9.002;2022-09-09T13:54:00;1.30;;;0.77;;
211;SDS011;16228;48.800;9.002;2022-09-09T13:56:27;4.23;;;0.93;;
211;SDS011;16228;48.800;9.002;2022-09-09T13:58:54;1.60;;;0.50;;
211;SDS011;16228;48.800;9.002;2022-09-09T14:01:22;1.77;;;0.60;;
211;SDS011;16228;48.800;9.002;2022-09-09T14:03:49;3.00;;;0.60;;
211;SDS011;16228;48.800;9.002;2022-09-09T14:06:18;2.37;;;0.53;;
211;SDS011;16228;48.800;9.002;2022-09-09T14:08:48;1.23;;;0.70;;
211;SDS011;16228;48.800;9.002;2022-09-09T14:11:16;3.77;;;0.93;;
211;SDS011;16228;48.800;9.002;2022-09-09T14:13:44;3.13;;;0.60;;
211;SDS011;16228;48.800;9.002;2022-09-09T14:16:11;1.73;;;0.57;;
211;SDS011;16228;48.800;9.002;2022-09-09T14:18:38;1.53;;;0.40;;
211;SDS011;16228;48.800;9.002;2022-09-09T14:21:06;1.23;;;0.50;;
211;SDS011;16228;48.800;9.002;2022-09-09T14:23:33;1.47;;;0.50;;
211;SDS011;16228;48.800;9.002;2022-09-09T14:26:02;0.70;;;0.47;;
211;SDS011;16228;48.800;9.002;2022-09-09T14:28:29;2.00;;;0.60;;
211;SDS011;16228;48.800;9.002;2022-09-09T14:30:58;1.53;;;0.40;;
211;SDS011;16228;48.800;9.002;2022-09-09T14:33:26;1.87;;;0.70;;
211;SDS011;16228;48.800;9.002;2022-09-09T14:35:55;1.47;;;0.60;;
211;SDS011;16228;48.800;9.002;2022-09-09T14:38:23;1.70;;;0.63;;
211;SDS011;16228;48.800;9.002;2022-09-09T14:40:50;1.20;;;0.40;;
211;SDS011;16228;48.800;9.002;2022-09-09T14:43:18;1.43;;;0.40;;
211;SDS011;16228;48.800;9.002;2022-09-09T14:45:46;0.50;;;0.40;;
211;SDS011;16228;48.800;9.002;2022-09-09T14:48:13;2.63;;;0.83;;
211;SDS011;16228;48.800;9.002;2022-09-09T14:50:41;0.53;;;0.30;;
211;SDS011;16228;48.800;9.002;2022-09-09T14:53:08;1.03;;;0.40;;
211;SDS011;16228;48.800;9.002;2022-09-09T14:55:35;2.07;;;0.50;;
211;SDS011;16228;48.800;9.002;2022-09-09T14:58:02;3.10;;;0.50;;
211;SDS011;16228;48.800;9.002;2022-09-09T15:00:30;1.97;;;0.80;;
211;SDS011;16228;48.800;9.002;2022-09-09T15:02:57;1.43;;;0.43;;
211;SDS011;16228;48.800;9.002;2022-09-09T15:05:24;0.93;;;0.50;;
211;SDS011;16228;48.800;9.002;2022-09-09T15:07:53;1.73;;;0.50;;
211;SDS011;16228;48.800;9.002;2022-09-09T15:10:20;2.17;;;0.87;;
211;SDS011;16228;48.800;9.002;2022-09-09T15:12:47;1.47;;;0.43;;
211;SDS011;16228;48.800;9.002;2022-09-09T15:15:14;1.80;;;0.50;;
211;SDS011;16228;48.800;9.002;2022-09-09T15:17:42;1.60;;;0.60;;
211;SDS011;16228;48.800;9.002;2022-09-09T15:20:09;2.57;;;0.40;;
211;SDS011;16228;48.800;9.002;2022-09-09T15:22:36;1.73;;;0.70;;
211;SDS011;16228;48.800;9.002;2022-09-09T15:25:04;1.77;;;0.60;;
211;SDS011;16228;48.800;9.002;2022-09-09T15:27:32;2.37;;;0.60;;
211;SDS011;16228;48.800;9.002;2022-09-09T15:29:59;1.80;;;0.50;;
211;SDS011;16228;48.800;9.002;2022-09-09T15:32:27;1.57;;;0.67;;
211;SDS011;16228;48.800;9.002;2022-09-09T15:34:55;1.13;;;0.47;;
211;SDS011;16228;48.800;9.002;2022-09-09T15:37:22;2.93;;;1.10;;
211;SDS011;16228;48.800;9.002;2022-09-09T15:39:49;1.10;;;0.50;;
211;SDS011;16228;48.800;9.002;2022-09-09T15:42:16;1.83;;;0.70;;
211;SDS011;16228;48.800;9.002;2022-09-09T15:44:43;4.00;;;0.70;;